createdAt,value
2023-03-13T00:01:41.250Z,3.87
2023-03-13T00:04:08.206Z,4.57
2023-03-13T00:06:37.375Z,4.75
2023-03-13T00:09:06.613Z,4.22
2023-03-13T00:11:33.669Z,4.25
2023-03-13T00:14:02.824Z,4.20
2023-03-13T00:16:30.013Z,3.92
2023-03-13T00:18:58.356Z,3.50
2023-03-13T00:21:27.534Z,3.70
2023-03-13T00:23:54.396Z,3.72
2023-03-13T00:26:23.655Z,3.60
2023-03-13T00:28:51.535Z,3.72
2023-03-13T00:31:26.354Z,3.58
2023-03-13T00:33:59.129Z,3.28
2023-03-13T00:36:33.777Z,3.90
2023-03-13T00:39:03.762Z,3.93
2023-03-13T00:41:32.425Z,3.40
2023-03-13T00:43:59.429Z,3.92
2023-03-13T00:46:29.301Z,3.75
2023-03-13T00:48:59.468Z,3.65
2023-03-13T00:51:30.480Z,4.33
2023-03-13T00:54:07.306Z,3.90
2023-03-13T00:56:43.353Z,3.83
2023-03-13T00:59:14.259Z,3.20
2023-03-13T01:01:45.338Z,3.50
2023-03-13T01:04:12.618Z,3.93
2023-03-13T01:06:47.226Z,5.00
2023-03-13T01:09:23.060Z,4.30
2023-03-13T01:11:55.073Z,3.92
2023-03-13T01:14:30.586Z,4.22
2023-03-13T01:17:00.837Z,3.80
2023-03-13T01:19:27.645Z,4.35
2023-03-13T01:21:54.622Z,4.45
2023-03-13T01:24:28.233Z,4.15
2023-03-13T01:27:03.513Z,5.07
2023-03-13T01:29:35.760Z,5.57
2023-03-13T01:32:06.209Z,4.20
2023-03-13T01:34:34.299Z,4.95
2023-03-13T01:37:01.731Z,4.43
2023-03-13T01:39:29.165Z,5.25
2023-03-13T01:42:04.275Z,5.03
2023-03-13T01:45:30.419Z,4.03
2023-03-13T01:47:59.776Z,5.10
2023-03-13T01:50:43.332Z,5.90
2023-03-13T01:53:19.648Z,4.90
2023-03-13T01:55:47.369Z,6.00
2023-03-13T01:58:17.142Z,6.10
2023-03-13T02:00:49.406Z,5.75
2023-03-13T02:03:20.469Z,5.38
2023-03-13T02:06:03.160Z,4.60
2023-03-13T02:08:43.865Z,5.87
2023-03-13T02:11:52.999Z,4.90
2023-03-13T02:14:23.688Z,4.65
2023-03-13T02:16:53.655Z,4.85
2023-03-13T02:19:47.842Z,5.10
2023-03-13T02:22:33.826Z,5.47
2023-03-13T02:25:25.776Z,4.78
2023-03-13T02:28:27.452Z,5.03
2023-03-13T02:30:57.155Z,5.03
2023-03-13T02:33:30.603Z,4.32
2023-03-13T02:36:00.463Z,5.07
2023-03-13T02:38:37.045Z,4.32
2023-03-13T02:41:06.108Z,4.45
2023-03-13T02:43:43.391Z,4.35
2023-03-13T02:46:18.020Z,4.45
2023-03-13T02:48:55.769Z,3.97
2023-03-13T02:51:31.602Z,3.58
2023-03-13T02:54:02.141Z,4.22
2023-03-13T02:56:33.573Z,4.28
2023-03-13T02:59:00.934Z,4.57
2023-03-13T03:01:33.093Z,4.53
2023-03-13T03:04:00.424Z,4.07
2023-03-13T03:06:27.794Z,4.25
2023-03-13T03:09:02.708Z,3.97
2023-03-13T03:11:35.948Z,4.28
2023-03-13T03:14:13.050Z,4.80
2023-03-13T03:16:43.867Z,4.45
2023-03-13T03:19:17.009Z,4.65
2023-03-13T03:21:50.218Z,4.70
2023-03-13T03:24:27.200Z,5.15
2023-03-13T03:26:54.645Z,4.70
2023-03-13T03:29:28.081Z,5.25
2023-03-13T03:31:56.527Z,5.25
2023-03-13T03:34:24.176Z,5.55
2023-03-13T03:36:51.528Z,5.55
2023-03-13T03:39:18.260Z,6.53
2023-03-13T03:41:44.967Z,6.10
2023-03-13T03:44:11.816Z,6.10
2023-03-13T03:47:07.893Z,6.32
2023-03-13T03:49:45.551Z,6.80
2023-03-13T03:52:15.086Z,5.87
2023-03-13T03:54:45.265Z,5.43
2023-03-13T03:57:14.704Z,6.00
2023-03-13T03:59:45.021Z,5.40
2023-03-13T04:02:13.606Z,6.82
2023-03-13T04:04:47.313Z,6.00
2023-03-13T04:07:26.791Z,6.63
2023-03-13T04:10:01.386Z,5.65
2023-03-13T04:12:37.296Z,5.80
2023-03-13T04:15:11.133Z,5.05
2023-03-13T04:17:38.630Z,5.63
2023-03-13T04:20:07.731Z,6.03
2023-03-13T04:22:35.338Z,5.32
2023-03-13T04:25:02.533Z,5.30
2023-03-13T04:27:33.216Z,6.50
2023-03-13T04:30:00.142Z,6.10
2023-03-13T04:32:27.198Z,6.78
2023-03-13T04:35:23.307Z,5.88
2023-03-13T04:38:11.171Z,4.72
2023-03-13T04:41:05.423Z,6.22
2023-03-13T04:44:03.388Z,5.67
2023-03-13T04:46:44.074Z,4.82
2023-03-13T04:49:36.022Z,5.40
2023-03-13T04:52:13.436Z,7.00
2023-03-13T04:55:01.756Z,6.95
2023-03-13T04:57:49.611Z,6.47
2023-03-13T05:00:29.713Z,5.90
2023-03-13T05:03:26.059Z,5.90
2023-03-13T05:05:55.494Z,6.93
2023-03-13T05:08:40.806Z,6.72
2023-03-13T05:11:22.634Z,7.00
2023-03-13T05:14:01.579Z,6.93
2023-03-13T05:16:37.014Z,6.80
2023-03-13T05:19:36.415Z,7.22
2023-03-13T05:22:17.635Z,7.95
2023-03-13T05:25:14.621Z,6.60
2023-03-13T05:28:05.537Z,6.90
2023-03-13T05:31:07.900Z,7.20
2023-03-13T05:34:03.472Z,7.03
2023-03-13T05:37:03.253Z,7.47
2023-03-13T05:39:53.832Z,6.47
2023-03-13T05:42:45.302Z,7.28
2023-03-13T05:45:30.333Z,6.75
2023-03-13T05:48:21.996Z,7.38
2023-03-13T05:51:02.609Z,5.97
2023-03-13T05:53:45.040Z,5.87
2023-03-13T05:56:34.729Z,6.20
2023-03-13T05:59:28.073Z,5.88
2023-03-13T06:02:03.777Z,5.75
2023-03-13T06:04:39.437Z,5.65
2023-03-13T06:07:06.643Z,5.00
2023-03-13T06:09:33.402Z,5.35
2023-03-13T06:12:00.444Z,5.15
2023-03-13T06:14:27.386Z,5.05
2023-03-13T06:17:09.076Z,5.10
2023-03-13T06:19:35.620Z,5.20
2023-03-13T06:22:02.259Z,4.47
2023-03-13T06:24:28.869Z,4.63
2023-03-13T06:26:55.452Z,4.50
2023-03-13T06:29:24.086Z,4.63
2023-03-13T06:31:51.643Z,3.80
2023-03-13T06:34:18.652Z,4.95
2023-03-13T06:36:45.383Z,3.90
2023-03-13T06:39:13.361Z,3.67
2023-03-13T06:41:39.960Z,4.07
2023-03-13T06:44:06.628Z,4.60
2023-03-13T06:46:33.646Z,4.50
2023-03-13T06:49:00.943Z,4.30
2023-03-13T06:51:27.506Z,4.85
2023-03-13T06:53:54.294Z,5.00
2023-03-13T06:56:21.746Z,5.10
2023-03-13T06:58:49.305Z,4.50
2023-03-13T07:01:17.733Z,3.80
2023-03-13T07:03:44.535Z,3.90
2023-03-13T07:06:12.578Z,3.80
2023-03-13T07:08:39.865Z,3.43
2023-03-13T07:11:08.616Z,4.13
2023-03-13T07:13:36.036Z,4.10
2023-03-13T07:16:05.541Z,4.80
2023-03-13T07:18:33.192Z,3.53
2023-03-13T07:21:02.075Z,4.07
2023-03-13T07:23:29.677Z,3.78
2023-03-13T07:26:05.412Z,3.95
2023-03-13T07:28:32.564Z,3.88
2023-03-13T07:31:12.940Z,3.30
2023-03-13T07:33:40.312Z,4.00
2023-03-13T07:36:07.881Z,3.10
2023-03-13T07:38:35.197Z,3.08
2023-03-13T07:41:01.856Z,3.22
2023-03-13T07:43:29.530Z,3.20
2023-03-13T07:46:01.691Z,3.20
2023-03-13T07:48:31.085Z,2.80
2023-03-13T07:50:58.701Z,2.90
2023-03-13T07:53:26.026Z,4.13
2023-03-13T07:56:13.960Z,2.80
2023-03-13T07:58:41.976Z,2.70
2023-03-13T08:01:16.510Z,2.90
2023-03-13T08:03:45.325Z,3.55
2023-03-13T08:06:15.166Z,3.53
2023-03-13T08:08:41.930Z,3.47
2023-03-13T08:11:17.895Z,3.23
2023-03-13T08:13:45.153Z,3.28
2023-03-13T08:16:17.846Z,3.17
2023-03-13T08:18:46.622Z,3.38
2023-03-13T08:21:18.647Z,3.10
2023-03-13T08:23:45.933Z,2.80
2023-03-13T08:26:18.671Z,3.63
2023-03-13T08:28:47.767Z,3.38
2023-03-13T08:31:21.696Z,3.28
2023-03-13T08:33:48.808Z,3.60
2023-03-13T08:36:19.909Z,3.63
2023-03-13T08:38:47.424Z,3.00
2023-03-13T08:41:17.148Z,3.08
2023-03-13T08:43:44.404Z,3.80
2023-03-13T08:46:11.298Z,3.40
2023-03-13T08:48:38.105Z,3.30
2023-03-13T08:51:10.694Z,3.88
2023-03-13T08:53:38.955Z,3.90
2023-03-13T08:56:06.535Z,3.58
2023-03-13T08:58:33.461Z,4.07
2023-03-13T09:01:11.860Z,4.23
2023-03-13T09:03:39.330Z,3.97
2023-03-13T09:06:06.625Z,3.70
2023-03-13T09:08:33.781Z,3.42
2023-03-13T09:11:21.749Z,3.08
2023-03-13T09:13:51.045Z,2.10
2023-03-13T09:16:20.374Z,2.33
2023-03-13T09:18:47.591Z,1.95
2023-03-13T09:21:23.024Z,2.25
2023-03-13T09:23:49.934Z,1.98
2023-03-13T09:26:17.423Z,1.80
2023-03-13T09:28:44.693Z,1.60
2023-03-13T09:31:14.806Z,1.73
2023-03-13T09:33:43.090Z,1.65
2023-03-13T09:36:10.591Z,1.55
2023-03-13T09:38:38.243Z,1.90
2023-03-13T09:41:28.054Z,1.40
2023-03-13T09:43:57.592Z,1.50
2023-03-13T09:46:27.389Z,1.17
2023-03-13T09:49:03.976Z,1.50
2023-03-13T09:51:36.870Z,1.27
2023-03-13T09:54:22.400Z,1.48
2023-03-13T09:57:10.953Z,1.15
2023-03-13T09:59:48.133Z,0.98
2023-03-13T10:02:32.097Z,1.52
2023-03-13T10:05:10.689Z,1.10
2023-03-13T10:07:42.985Z,1.02
2023-03-13T10:10:23.424Z,0.80
2023-03-13T10:12:57.811Z,0.90
2023-03-13T10:15:49.101Z,1.13
2023-03-13T10:18:21.985Z,0.80
2023-03-13T10:20:51.524Z,0.88
2023-03-13T10:23:38.492Z,0.70
2023-03-13T10:26:05.924Z,0.90
2023-03-13T10:28:32.762Z,0.82
2023-03-13T10:31:17.780Z,0.97
2023-03-13T10:33:44.933Z,0.82
2023-03-13T10:36:13.820Z,0.73
2023-03-13T10:38:48.332Z,0.98
2023-03-13T10:41:41.192Z,0.80
2023-03-13T10:44:16.709Z,0.80
2023-03-13T10:46:46.874Z,1.17
2023-03-13T10:49:17.014Z,1.45
2023-03-13T10:51:50.112Z,0.82
2023-03-13T10:54:31.497Z,1.30
2023-03-13T10:57:29.737Z,1.20
2023-03-13T10:59:57.263Z,1.00
2023-03-13T11:02:27.288Z,0.88
2023-03-13T11:04:54.687Z,1.67
2023-03-13T11:07:28.268Z,0.98
2023-03-13T11:10:31.157Z,1.00
2023-03-13T11:12:58.832Z,1.00
2023-03-13T11:15:37.560Z,0.85
2023-03-13T11:18:15.436Z,0.90
2023-03-13T11:20:45.298Z,1.17
2023-03-13T11:23:29.620Z,1.10
2023-03-13T11:26:14.913Z,0.77
2023-03-13T11:28:55.266Z,1.00
2023-03-13T11:31:28.396Z,0.80
2023-03-13T11:34:02.312Z,0.80
2023-03-13T11:36:36.405Z,0.80
2023-03-13T11:39:26.462Z,0.93
2023-03-13T11:42:05.284Z,1.02
2023-03-13T11:44:47.721Z,0.80
2023-03-13T11:47:29.417Z,0.90
2023-03-13T11:49:59.137Z,0.77
2023-03-13T11:52:46.707Z,0.90
2023-03-13T11:55:38.162Z,0.80
2023-03-13T11:58:13.734Z,0.90
2023-03-13T12:00:53.907Z,1.20
2023-03-13T12:03:44.756Z,1.10
2023-03-13T12:06:34.477Z,0.90
2023-03-13T12:09:37.216Z,1.05
2023-03-13T12:12:22.922Z,0.80
2023-03-13T12:15:00.570Z,1.23
2023-03-13T12:17:35.167Z,1.00
2023-03-13T12:20:09.306Z,1.20
2023-03-13T12:22:42.580Z,1.00
2023-03-13T12:25:18.631Z,0.88
2023-03-13T12:27:52.056Z,1.27
2023-03-13T12:30:24.680Z,0.90
2023-03-13T12:33:04.554Z,1.15
2023-03-13T12:35:34.649Z,0.75
2023-03-13T12:38:15.169Z,0.88
2023-03-13T12:40:50.779Z,0.70
2023-03-13T12:43:27.032Z,0.90
2023-03-13T12:45:56.939Z,0.98
2023-03-13T12:48:41.827Z,0.60
2023-03-13T12:51:38.116Z,0.63
2023-03-13T12:54:31.378Z,0.70
2023-03-13T12:57:16.018Z,0.87
2023-03-13T12:59:49.096Z,0.82
2023-03-13T13:02:21.608Z,0.80
2023-03-13T13:04:50.842Z,0.80
2023-03-13T13:07:26.900Z,0.80
2023-03-13T13:10:16.459Z,0.70
2023-03-13T13:12:45.850Z,0.80
2023-03-13T13:15:29.450Z,0.82
2023-03-13T13:18:06.834Z,0.70
2023-03-13T13:21:09.605Z,0.80
2023-03-13T13:23:39.415Z,0.70
2023-03-13T13:26:26.513Z,1.75
2023-03-13T13:28:54.312Z,0.90
2023-03-13T13:31:57.258Z,0.60
2023-03-13T13:34:30.818Z,0.70
2023-03-13T13:37:02.169Z,0.60
2023-03-13T13:39:28.746Z,1.55
2023-03-13T13:41:55.433Z,0.70
2023-03-13T13:44:24.723Z,0.70
2023-03-13T13:46:52.776Z,0.93
2023-03-13T13:49:23.439Z,0.90
2023-03-13T13:52:02.205Z,0.90
2023-03-13T13:54:31.605Z,0.90
2023-03-13T13:56:59.712Z,0.95
2023-03-13T13:59:49.326Z,0.75
2023-03-13T14:02:19.733Z,0.60
2023-03-13T14:04:52.567Z,0.80
2023-03-13T14:08:04.988Z,1.08
2023-03-13T14:10:46.983Z,0.90
2023-03-13T14:13:19.571Z,0.70
2023-03-13T14:15:53.072Z,0.90
2023-03-13T14:18:28.540Z,0.70
2023-03-13T14:21:15.586Z,0.68
2023-03-13T14:23:46.305Z,0.75
2023-03-13T14:26:17.917Z,1.10
2023-03-13T14:28:50.277Z,0.90
2023-03-13T14:31:33.343Z,0.80
2023-03-13T14:34:03.261Z,1.23
2023-03-13T14:36:30.469Z,1.02
2023-03-13T14:39:00.625Z,1.20
2023-03-13T14:41:44.253Z,1.00
2023-03-13T14:44:19.505Z,1.10
2023-03-13T14:46:46.233Z,1.60
2023-03-13T14:49:20.745Z,2.25
2023-03-13T14:51:58.108Z,1.38
2023-03-13T14:54:29.277Z,1.80
2023-03-13T14:57:13.747Z,1.55
2023-03-13T14:59:41.129Z,1.38
2023-03-13T15:02:21.394Z,2.45
2023-03-13T15:05:02.042Z,1.48
2023-03-13T15:07:40.790Z,2.23
2023-03-13T15:10:31.377Z,1.55
2023-03-13T15:12:58.506Z,1.70
2023-03-13T15:15:25.871Z,1.13
2023-03-13T15:17:52.803Z,1.60
2023-03-13T15:20:19.517Z,1.37
2023-03-13T15:22:46.540Z,1.67
2023-03-13T15:25:27.149Z,1.52
2023-03-13T15:27:53.657Z,1.85
2023-03-13T15:30:25.209Z,1.88
2023-03-13T15:32:52.167Z,1.85
2023-03-13T15:35:30.835Z,1.10
2023-03-13T15:37:59.447Z,1.90
2023-03-13T15:40:27.282Z,1.85
2023-03-13T15:42:54.774Z,1.58
2023-03-13T15:45:21.510Z,1.85
2023-03-13T15:47:48.960Z,1.33
2023-03-13T15:50:19.226Z,1.55
2023-03-13T15:52:46.249Z,1.55
2023-03-13T15:55:13.162Z,1.95
2023-03-13T15:57:47.071Z,2.03
2023-03-13T16:00:25.579Z,1.67
2023-03-13T16:02:52.142Z,2.03
2023-03-13T16:05:18.945Z,1.55
2023-03-13T16:07:45.563Z,2.25
2023-03-13T16:10:25.707Z,1.75
2023-03-13T16:12:53.343Z,1.80
2023-03-13T16:15:20.035Z,1.95
2023-03-13T16:17:46.558Z,1.67
2023-03-13T16:20:17.377Z,1.45
2023-03-13T16:22:44.486Z,2.00
2023-03-13T16:25:11.670Z,1.57
2023-03-13T16:27:39.645Z,2.00
2023-03-13T16:30:15.639Z,1.98
2023-03-13T16:32:42.232Z,1.70
2023-03-13T16:35:08.778Z,1.55
2023-03-13T16:37:35.253Z,2.23
2023-03-13T16:40:02.279Z,2.28
2023-03-13T16:42:28.771Z,1.70
2023-03-13T16:44:56.390Z,1.60
2023-03-13T16:47:29.028Z,2.10
2023-03-13T16:49:55.640Z,1.30
2023-03-13T16:52:22.176Z,2.25
2023-03-13T16:54:48.784Z,1.95
2023-03-13T16:57:18.196Z,2.35
2023-03-13T16:59:44.694Z,3.17
2023-03-13T17:02:20.768Z,2.50
2023-03-13T17:04:47.984Z,2.65
2023-03-13T17:07:26.666Z,1.95
2023-03-13T17:09:53.360Z,1.90
2023-03-13T17:12:19.893Z,2.30
2023-03-13T17:14:46.633Z,2.20
2023-03-13T17:17:17.063Z,2.78
2023-03-13T17:19:44.210Z,2.08
2023-03-13T17:22:16.934Z,2.55
2023-03-13T17:24:44.850Z,1.80
2023-03-13T17:27:13.642Z,2.27
2023-03-13T17:29:40.402Z,2.28
2023-03-13T17:32:10.423Z,2.13
2023-03-13T17:34:36.968Z,2.03
2023-03-13T17:37:06.101Z,2.50
2023-03-13T17:39:32.663Z,2.07
2023-03-13T17:42:00.244Z,2.40
2023-03-13T17:44:26.752Z,2.60
2023-03-13T17:46:53.330Z,2.70
2023-03-13T17:49:20.523Z,2.13
2023-03-13T17:51:49.772Z,2.50
2023-03-13T17:54:16.507Z,2.65
2023-03-13T17:56:43.974Z,2.67
2023-03-13T17:59:13.832Z,2.10
2023-03-13T18:01:40.788Z,2.80
2023-03-13T18:04:07.926Z,2.77
2023-03-13T18:06:46.145Z,2.60
2023-03-13T18:09:21.963Z,2.78
2023-03-13T18:11:49.828Z,2.70
2023-03-13T18:14:16.802Z,2.55
2023-03-13T18:16:47.846Z,2.10
2023-03-13T18:19:15.846Z,2.22
2023-03-13T18:21:44.480Z,2.03
2023-03-13T18:24:12.416Z,2.33
2023-03-13T18:26:41.231Z,2.45
2023-03-13T18:29:20.147Z,2.40
2023-03-13T18:31:48.149Z,2.28
2023-03-13T18:34:15.231Z,2.03
2023-03-13T18:36:42.756Z,2.33
2023-03-13T18:39:13.896Z,2.53
2023-03-13T18:41:40.399Z,2.47
2023-03-13T18:44:06.881Z,2.58
2023-03-13T18:46:34.590Z,2.50
2023-03-13T18:49:01.114Z,2.60
2023-03-13T18:51:28.640Z,2.78
2023-03-13T18:53:55.471Z,2.90
2023-03-13T18:56:25.336Z,3.22
2023-03-13T18:58:53.406Z,2.30
2023-03-13T19:01:22.603Z,3.03
2023-03-13T19:03:49.761Z,2.88
2023-03-13T19:06:23.731Z,3.30
2023-03-13T19:08:53.499Z,2.95
2023-03-13T19:11:28.669Z,2.80
2023-03-13T19:13:55.857Z,2.63
2023-03-13T19:16:38.070Z,2.70
2023-03-13T19:19:21.295Z,3.10
2023-03-13T19:21:48.216Z,3.97
2023-03-13T19:24:14.837Z,3.67
2023-03-13T19:26:45.120Z,4.18
2023-03-13T19:29:17.846Z,2.70
2023-03-13T19:31:44.800Z,3.17
2023-03-13T19:34:11.534Z,3.35
2023-03-13T19:36:41.178Z,4.30
2023-03-13T19:39:26.160Z,4.45
2023-03-13T19:41:54.285Z,3.42
2023-03-13T19:44:21.340Z,4.30
2023-03-13T19:46:48.581Z,3.63
2023-03-13T19:49:18.096Z,3.65
2023-03-13T19:51:45.430Z,3.78
2023-03-13T19:54:12.140Z,3.45
2023-03-13T19:56:40.890Z,2.93
2023-03-13T19:59:14.304Z,3.53
2023-03-13T20:01:41.238Z,4.22
2023-03-13T20:04:08.256Z,3.35
2023-03-13T20:06:35.427Z,3.05
2023-03-13T20:09:05.156Z,4.23
2023-03-13T20:11:32.442Z,3.45
2023-03-13T20:13:59.611Z,3.25
2023-03-13T20:16:28.071Z,2.78
2023-03-13T20:18:58.078Z,3.63
2023-03-13T20:21:29.637Z,2.60
2023-03-13T20:23:57.511Z,3.40
2023-03-13T20:26:24.640Z,2.90
2023-03-13T20:28:52.676Z,3.25
2023-03-13T20:31:22.255Z,3.40
2023-03-13T20:33:48.905Z,2.93
2023-03-13T20:36:18.369Z,2.72
2023-03-13T20:38:45.066Z,3.65
2023-03-13T20:41:11.955Z,3.08
2023-03-13T20:43:39.251Z,3.53
2023-03-13T20:46:07.207Z,2.93
2023-03-13T20:48:39.318Z,2.42
2023-03-13T20:51:07.612Z,4.03
2023-03-13T20:53:39.453Z,2.90
2023-03-13T20:56:07.445Z,3.20
2023-03-13T20:58:34.930Z,3.50
2023-03-13T21:01:02.456Z,3.30
2023-03-13T21:03:29.293Z,3.90
2023-03-13T21:05:55.805Z,2.90
2023-03-13T21:08:22.943Z,3.20
2023-03-13T21:10:49.490Z,2.70
2023-03-13T21:13:16.079Z,3.15
2023-03-13T21:15:42.598Z,2.72
2023-03-13T21:18:09.147Z,3.17
2023-03-13T21:20:38.087Z,3.00
2023-03-13T21:23:04.669Z,3.63
2023-03-13T21:25:31.173Z,3.40
2023-03-13T21:27:57.700Z,2.88
2023-03-13T21:30:24.369Z,2.92
2023-03-13T21:32:51.324Z,3.35
2023-03-13T21:35:17.945Z,3.40
2023-03-13T21:37:44.616Z,3.83
2023-03-13T21:40:12.289Z,2.97
2023-03-13T21:42:39.022Z,3.15
2023-03-13T21:45:06.941Z,3.10
2023-03-13T21:47:36.882Z,2.97
2023-03-13T21:50:06.726Z,2.97
2023-03-13T21:52:38.242Z,2.20
2023-03-13T21:55:08.200Z,2.88
2023-03-13T21:57:35.426Z,2.97
2023-03-13T22:00:04.492Z,3.00
2023-03-13T22:02:37.564Z,2.35
2023-03-13T22:05:04.735Z,2.28
2023-03-13T22:07:31.329Z,2.70
2023-03-13T22:09:59.184Z,1.88
2023-03-13T22:12:26.478Z,3.10
2023-03-13T22:14:54.527Z,2.53
2023-03-13T22:17:23.280Z,2.65
2023-03-13T22:19:50.127Z,2.53
2023-03-13T22:22:17.108Z,2.95
2023-03-13T22:24:43.911Z,3.00
2023-03-13T22:27:11.160Z,2.90
2023-03-13T22:29:38.048Z,2.28
2023-03-13T22:32:05.103Z,3.80
2023-03-13T22:34:32.037Z,2.50
2023-03-13T22:36:58.623Z,3.17
2023-03-13T22:39:25.157Z,2.60
2023-03-13T22:41:51.862Z,3.05
2023-03-13T22:44:19.215Z,2.83
2023-03-13T22:46:46.235Z,2.83
2023-03-13T22:49:12.801Z,2.93
2023-03-13T22:51:39.968Z,3.15
2023-03-13T22:54:06.868Z,3.03
2023-03-13T22:56:33.608Z,3.05
2023-03-13T22:59:00.354Z,3.13
2023-03-13T23:01:27.314Z,3.73
2023-03-13T23:03:54.519Z,3.70
2023-03-13T23:06:24.059Z,2.45
2023-03-13T23:08:52.013Z,3.15
2023-03-13T23:11:21.034Z,3.55
2023-03-13T23:13:49.075Z,2.87
2023-03-13T23:16:15.979Z,3.00
2023-03-13T23:18:42.573Z,3.47
2023-03-13T23:21:11.480Z,2.97
2023-03-13T23:23:38.677Z,2.50
2023-03-13T23:26:08.195Z,3.13
2023-03-13T23:28:35.970Z,3.10
2023-03-13T23:31:20.449Z,3.40
2023-03-13T23:33:48.013Z,3.03
2023-03-13T23:36:17.710Z,2.80
2023-03-13T23:38:44.529Z,2.33
2023-03-13T23:41:13.837Z,2.72
2023-03-13T23:43:41.052Z,2.35
2023-03-13T23:46:19.537Z,2.17
2023-03-13T23:48:46.485Z,2.88
2023-03-13T23:51:13.391Z,2.00
2023-03-13T23:53:42.217Z,2.40
2023-03-13T23:56:09.656Z,2.03
2023-03-13T23:58:36.632Z,1.90
